createdAt,value
2022-08-30T07:09:51.148Z,10.40
2022-08-30T07:12:18.571Z,10.27
2022-08-30T07:14:45.782Z,11.05
2022-08-30T07:17:34.540Z,9.48
2022-08-30T07:20:03.472Z,10.95
2022-08-30T07:22:30.470Z,10.02
2022-08-30T07:24:57.532Z,11.02
2022-08-30T07:27:24.507Z,10.10
2022-08-30T07:29:51.671Z,10.05
2022-08-30T07:32:18.735Z,10.07
2022-08-30T07:34:45.711Z,10.02
2022-08-30T07:37:18.131Z,10.98
2022-08-30T07:39:47.939Z,10.73
2022-08-30T07:42:16.174Z,10.02
2022-08-30T07:44:43.997Z,9.93
2022-08-30T07:47:11.700Z,10.27
2022-08-30T07:49:38.920Z,10.32
2022-08-30T07:52:06.127Z,10.15
2022-08-30T07:54:33.132Z,9.45
2022-08-30T07:57:00.207Z,9.63
2022-08-30T07:59:27.327Z,12.07
2022-08-30T08:01:54.520Z,10.25
2022-08-30T08:04:22.074Z,10.88
2022-08-30T08:06:49.280Z,10.05
2022-08-30T08:09:16.501Z,11.00
2022-08-30T08:11:43.539Z,10.93
2022-08-30T08:14:10.956Z,11.38
2022-08-30T08:16:38.896Z,11.25
2022-08-30T08:19:09.430Z,10.35
2022-08-30T08:21:37.481Z,9.07
2022-08-30T08:24:04.785Z,9.48
2022-08-30T08:26:35.010Z,9.15
2022-08-30T08:29:02.054Z,10.35
2022-08-30T08:31:33.851Z,9.65
2022-08-30T08:34:03.509Z,10.40
2022-08-30T08:36:31.580Z,10.32
2022-08-30T08:38:59.412Z,9.85
2022-08-30T08:41:44.434Z,9.88
2022-08-30T08:44:23.470Z,9.40
2022-08-30T08:47:23.873Z,10.07
2022-08-30T08:49:56.080Z,9.80
2022-08-30T08:52:57.747Z,11.02
2022-08-30T08:55:25.878Z,9.90
2022-08-30T08:57:52.939Z,9.32
2022-08-30T09:00:22.891Z,8.88
2022-08-30T09:03:04.661Z,9.40
2022-08-30T09:05:40.981Z,8.90
2022-08-30T09:08:11.899Z,9.55
2022-08-30T09:10:50.270Z,9.70
2022-08-30T09:13:19.946Z,8.35
2022-08-30T09:15:54.835Z,8.32
2022-08-30T09:18:45.591Z,9.18
2022-08-30T09:21:15.363Z,8.65
2022-08-30T09:23:51.483Z,8.82
2022-08-30T09:26:36.167Z,7.82
2022-08-30T09:29:05.942Z,8.90
2022-08-30T09:31:49.078Z,7.57
2022-08-30T09:36:50.050Z,6.70
2022-08-30T09:39:31.766Z,6.97
2022-08-30T09:42:24.234Z,6.38
2022-08-30T09:44:53.071Z,6.35
2022-08-30T09:47:29.296Z,5.93
2022-08-30T09:50:14.398Z,5.95
2022-08-30T09:55:17.043Z,6.00
2022-08-30T09:57:53.309Z,5.90
2022-08-30T10:00:23.295Z,6.20
2022-08-30T10:03:34.864Z,5.97
2022-08-30T10:06:10.977Z,6.57
2022-08-30T10:09:20.651Z,6.55
2022-08-30T10:12:07.568Z,6.35
2022-08-30T10:14:49.618Z,6.43
2022-08-30T10:17:26.894Z,6.65
2022-08-30T10:20:15.549Z,6.03
2022-08-30T10:22:50.561Z,6.38
2022-08-30T10:25:31.406Z,6.00
2022-08-30T10:28:22.860Z,6.13
2022-08-30T10:31:29.458Z,5.95
2022-08-30T10:34:03.202Z,5.80
2022-08-30T10:36:53.126Z,6.25
2022-08-30T10:39:26.866Z,5.97
2022-08-30T10:42:11.664Z,5.47
2022-08-30T10:44:45.637Z,5.60
2022-08-30T10:47:32.185Z,5.70
2022-08-30T10:50:21.512Z,7.60
2022-08-30T10:53:19.824Z,5.60
2022-08-30T10:55:55.434Z,5.68
2022-08-30T10:58:23.830Z,5.82
2022-08-30T11:01:07.030Z,5.50
2022-08-30T11:03:40.533Z,5.95
2022-08-30T11:06:18.683Z,5.93
2022-08-30T11:09:11.593Z,6.05
2022-08-30T11:11:59.050Z,6.07
2022-08-30T11:14:26.977Z,5.95
2022-08-30T11:16:56.824Z,6.13
2022-08-30T11:19:36.866Z,5.78
2022-08-30T11:22:32.458Z,5.47
2022-08-30T11:25:12.157Z,5.45
2022-08-30T11:27:40.929Z,5.13
2022-08-30T11:30:27.051Z,5.60
2022-08-30T11:33:12.059Z,5.43
2022-08-30T11:35:46.041Z,5.55
2022-08-30T11:38:20.610Z,8.80
2022-08-30T11:40:56.800Z,6.22
2022-08-30T11:43:36.775Z,5.53
2022-08-30T11:46:28.599Z,5.65
2022-08-30T11:48:58.694Z,6.07
2022-08-30T11:52:08.280Z,6.00
2022-08-30T11:55:00.231Z,5.97
2022-08-30T11:57:49.921Z,5.90
2022-08-30T12:00:28.459Z,5.68
2022-08-30T12:02:59.090Z,6.10
2022-08-30T12:05:38.937Z,5.50
2022-08-30T12:08:09.586Z,5.28
2022-08-30T12:10:51.874Z,5.80
2022-08-30T12:13:37.733Z,5.80
2022-08-30T12:16:14.942Z,5.63
2022-08-30T12:18:51.829Z,4.80
2022-08-30T12:21:21.981Z,4.68
2022-08-30T12:24:04.634Z,4.78
2022-08-30T12:29:21.319Z,4.65
2022-08-30T12:31:58.930Z,5.00
2022-08-30T12:34:30.017Z,4.97
2022-08-30T12:37:00.088Z,5.25
2022-08-30T14:31:19.990Z,4.23
2022-08-30T14:33:47.652Z,4.43
2022-08-30T14:36:15.421Z,5.18
2022-08-30T14:38:45.186Z,5.00
2022-08-30T14:41:12.216Z,4.90
